Time;durP1;ratioP1;P1;durP2;ratioP2;P2;SDS_P1;SDS_P2;PMS_P1;PMS_P2;Temp;Humidity;BMP_temperature;BMP_pressure;BME280_temperature;BME280_humidity;BME280_pressure;Samples;Min_cycle;Max_cycle;Signal;HPM_P1;HPM_P2
2022/08/10 00:00:20;;;;;;;;;;;25.10;35.60;;;;;;1501355;77;1931;-58
2022/08/10 00:02:22;;;;;;;;;;;25.10;35.60;;;;;;1505367;77;1186;-58
2022/08/10 00:04:24;;;;;;;;;;;25.10;35.70;;;;;;1503812;77;726;-58
2022/08/10 00:06:26;;;;;;;;;;;25.10;35.70;;;;;;1501147;77;792;-58
2022/08/10 00:08:28;;;;;;;;;;;25.10;35.60;;;;;;1499955;77;715;-58
2022/08/10 00:10:29;;;;;;;;;;;25.10;35.60;;;;;;1501760;77;778;-58
2022/08/10 00:12:31;;;;;;;;;;;25.10;35.60;;;;;;1495903;77;1097;-59
2022/08/10 00:14:33;;;;;;;;;;;25.10;35.70;;;;;;1499246;77;722;-58
2022/08/10 00:16:35;;;;;;;;;;;25.10;35.70;;;;;;1501503;77;760;-58
2022/08/10 00:18:37;;;;;;;;;;;25.10;35.70;;;;;;1503459;77;787;-58
2022/08/10 00:20:39;;;;;;;;;;;25.10;35.70;;;;;;1499540;77;1930;-57
2022/08/10 00:22:41;;;;;;;;;;;25.10;35.70;;;;;;1496805;77;1520;-58
2022/08/10 00:24:42;;;;;;;;;;;25.10;35.70;;;;;;1497440;77;686;-58
2022/08/10 00:26:44;;;;;;;;;;;25.10;35.70;;;;;;1498679;77;827;-58
2022/08/10 00:28:46;;;;;;;;;;;25.10;35.70;;;;;;1504534;77;744;-58
2022/08/10 00:30:48;;;;;;;;;;;25.00;35.70;;;;;;1506052;77;747;-58
2022/08/10 00:32:50;;;;;;;;;;;25.10;35.70;;;;;;1491758;77;1164;-58
2022/08/10 00:34:52;;;;;;;;;;;25.10;35.70;;;;;;1516245;77;743;-58
2022/08/10 00:36:54;;;;;;;;;;;25.10;35.80;;;;;;1504885;77;718;-58
2022/08/10 00:38:56;;;;;;;;;;;25.10;35.70;;;;;;1513380;77;755;-58
2022/08/10 00:40:57;;;;;;;;;;;25.10;35.70;;;;;;1491983;77;1934;-58
2022/08/10 00:42:59;;;;;;;;;;;25.00;35.70;;;;;;1504273;77;1163;-58
2022/08/10 00:45:01;;;;;;;;;;;25.10;35.70;;;;;;1506592;77;704;-56
2022/08/10 00:47:03;;;;;;;;;;;25.00;35.70;;;;;;1506148;77;757;-56
2022/08/10 00:49:05;;;;;;;;;;;25.00;35.80;;;;;;1500550;77;745;-58
2022/08/10 00:51:07;;;;;;;;;;;25.10;35.70;;;;;;1497780;77;784;-57
2022/08/10 00:53:09;;;;;;;;;;;25.10;35.80;;;;;;1507013;77;1164;-58
2022/08/10 00:55:10;;;;;;;;;;;25.10;35.80;;;;;;1493947;77;787;-58
2022/08/10 00:57:13;;;;;;;;;;;25.10;35.80;;;;;;1504978;77;817;-57
2022/08/10 00:59:15;;;;;;;;;;;25.10;35.80;;;;;;1507465;77;816;-58
2022/08/10 01:01:16;;;;;;;;;;;25.00;35.90;;;;;;1515046;77;1949;-58
2022/08/10 01:03:18;;;;;;;;;;;25.00;35.80;;;;;;1499032;77;1126;-57
2022/08/10 01:05:20;;;;;;;;;;;25.00;35.90;;;;;;1491341;77;744;-58
2022/08/10 01:07:24;;;;;;;;;;;25.00;35.80;;;;;;1515177;77;679;-58
2022/08/10 01:09:30;;;;;;;;;;;25.00;36.00;;;;;;1509781;77;741;-58
2022/08/10 01:11:33;;;;;;;;;;;24.90;36.00;;;;;;1506569;77;739;-58
2022/08/10 01:13:40;;;;;;;;;;;25.00;35.80;;;;;;1501752;77;1921;-58
2022/08/10 01:15:52;;;;;;;;;;;25.00;35.90;;;;;;1506380;77;703;-58
2022/08/10 01:18:02;;;;;;;;;;;24.90;36.00;;;;;;1517671;77;719;-58
2022/08/10 01:20:22;;;;;;;;;;;24.90;36.00;;;;;;1499833;77;1749;-58
2022/08/10 01:22:42;;;;;;;;;;;24.90;36.00;;;;;;1503833;77;1927;-57
2022/08/10 01:25:04;;;;;;;;;;;24.80;36.00;;;;;;1486292;77;793;-58
2022/08/10 01:27:23;;;;;;;;;;;24.80;36.00;;;;;;1500114;77;754;-58
2022/08/10 01:29:26;;;;;;;;;;;24.80;36.00;;;;;;1504969;77;687;-58
2022/08/10 01:31:30;;;;;;;;;;;24.80;36.00;;;;;;1503003;77;2144;-58
2022/08/10 01:33:36;;;;;;;;;;;24.80;36.00;;;;;;1491005;77;1141;-58
2022/08/10 01:35:39;;;;;;;;;;;24.80;36.00;;;;;;1494100;77;777;-57
2022/08/10 01:37:45;;;;;;;;;;;24.80;36.00;;;;;;1502780;77;718;-58
2022/08/10 01:39:48;;;;;;;;;;;24.80;36.10;;;;;;1502285;77;729;-58
2022/08/10 01:41:50;;;;;;;;;;;24.80;36.10;;;;;;1501225;77;1983;-58
2022/08/10 01:44:00;;;;;;;;;;;24.80;36.20;;;;;;1498556;77;1133;-58
2022/08/10 01:46:02;;;;;;;;;;;24.90;36.20;;;;;;1497039;77;726;-58
2022/08/10 01:50:26;;;;;;;;;;;24.80;36.10;;;;;;1490648;77;1680;-58
2022/08/10 01:54:31;;;;;;;;;;;24.90;36.30;;;;;;1544249;76;646;-66
2022/08/10 01:56:34;;;;;;;;;;;24.80;36.10;;;;;;1553602;75;781;-67
2022/08/10 01:58:36;;;;;;;;;;;24.80;36.20;;;;;;1592460;74;702;-68
2022/08/10 02:00:38;;;;;;;;;;;24.80;36.20;;;;;;1545990;76;651;-66
2022/08/10 02:02:40;;;;;;;;;;;24.80;36.30;;;;;;1554163;75;1968;-66
2022/08/10 02:04:43;;;;;;;;;;;24.80;36.20;;;;;;1575477;74;724;-64
2022/08/10 02:06:45;;;;;;;;;;;24.80;36.30;;;;;;1582215;74;699;-67
2022/08/10 02:08:47;;;;;;;;;;;24.80;36.30;;;;;;1601029;73;730;-66
2022/08/10 02:10:49;;;;;;;;;;;24.70;36.30;;;;;;1589327;74;725;-68
2022/08/10 02:12:55;;;;;;;;;;;24.70;36.30;;;;;;1599057;73;1144;-65
2022/08/10 02:14:56;;;;;;;;;;;24.70;36.30;;;;;;1598356;73;1301;-66
2022/08/10 02:16:58;;;;;;;;;;;24.80;36.30;;;;;;1593810;74;1160;-66
2022/08/10 02:19:00;;;;;;;;;;;24.80;36.30;;;;;;1594076;73;696;-67
2022/08/10 02:21:03;;;;;;;;;;;24.70;36.30;;;;;;1593550;73;1925;-66
2022/08/10 02:23:15;;;;;;;;;;;24.70;36.30;;;;;;1592085;74;1105;-66
2022/08/10 02:25:17;;;;;;;;;;;24.70;36.40;;;;;;1592161;74;1050;-66
2022/08/10 02:27:20;;;;;;;;;;;24.80;36.30;;;;;;1588897;74;739;-66
2022/08/10 02:29:22;;;;;;;;;;;24.80;36.20;;;;;;1591180;74;709;-66
2022/08/10 02:31:24;;;;;;;;;;;24.80;36.10;;;;;;1591025;74;728;-66
2022/08/10 02:33:26;;;;;;;;;;;24.80;36.20;;;;;;1593369;74;1132;-65
2022/08/10 02:35:28;;;;;;;;;;;24.70;36.20;;;;;;1592718;74;714;-66
2022/08/10 02:37:29;;;;;;;;;;;24.60;36.10;;;;;;1589276;74;776;-66
2022/08/10 02:39:31;;;;;;;;;;;24.60;36.10;;;;;;1586201;74;801;-67
2022/08/10 02:41:40;;;;;;;;;;;24.60;36.30;;;;;;1590014;74;1927;-65
2022/08/10 02:43:44;;;;;;;;;;;24.70;36.30;;;;;;1593081;74;1140;-65
2022/08/10 02:45:46;;;;;;;;;;;24.70;36.30;;;;;;1595167;73;1160;-66
2022/08/10 02:48:02;;;;;;;;;;;24.70;36.40;;;;;;1592385;74;741;-66
2022/08/10 02:50:22;;;;;;;;;;;24.70;36.40;;;;;;1589483;73;1128;-66
2022/08/10 02:52:24;;;;;;;;;;;24.60;36.40;;;;;;1596934;73;758;-65
2022/08/10 02:54:31;;;;;;;;;;;24.60;36.30;;;;;;1593296;74;761;-66
2022/08/10 02:56:40;;;;;;;;;;;24.60;36.30;;;;;;1591509;74;738;-68
2022/08/10 02:58:45;;;;;;;;;;;24.70;36.40;;;;;;1596035;74;747;-64
2022/08/10 03:00:48;;;;;;;;;;;24.60;36.30;;;;;;1593241;74;676;-67
2022/08/10 03:02:49;;;;;;;;;;;24.60;36.20;;;;;;1594902;74;1942;-66
2022/08/10 03:04:53;;;;;;;;;;;24.60;36.20;;;;;;1586841;74;793;-66
2022/08/10 03:06:55;;;;;;;;;;;24.60;36.20;;;;;;1594263;74;608;-66
2022/08/10 03:08:57;;;;;;;;;;;24.60;36.20;;;;;;1592018;74;723;-65
2022/08/10 03:11:00;;;;;;;;;;;24.60;36.30;;;;;;1591798;74;1434;-66
2022/08/10 03:13:03;;;;;;;;;;;24.60;36.30;;;;;;1590882;73;1168;-65
2022/08/10 03:15:05;;;;;;;;;;;24.60;36.30;;;;;;1594841;74;740;-66
2022/08/10 03:17:07;;;;;;;;;;;24.60;36.20;;;;;;1593122;74;733;-66
2022/08/10 03:19:09;;;;;;;;;;;24.60;36.20;;;;;;1593110;74;697;-65
2022/08/10 03:21:12;;;;;;;;;;;24.60;36.20;;;;;;1593014;74;649;-65
2022/08/10 03:23:14;;;;;;;;;;;24.60;36.10;;;;;;1591482;74;1183;-65
2022/08/10 03:25:16;;;;;;;;;;;24.60;36.20;;;;;;1593165;74;625;-66
2022/08/10 03:27:18;;;;;;;;;;;24.60;36.20;;;;;;1589070;74;696;-66
2022/08/10 03:29:20;;;;;;;;;;;24.60;36.30;;;;;;1591677;74;707;-66
2022/08/10 03:31:22;;;;;;;;;;;24.50;36.20;;;;;;1588582;74;767;-66
2022/08/10 03:33:25;;;;;;;;;;;24.50;36.30;;;;;;1595804;73;1153;-65
2022/08/10 03:35:27;;;;;;;;;;;24.50;36.30;;;;;;1590494;74;544;-65
2022/08/10 03:37:29;;;;;;;;;;;24.50;36.30;;;;;;1594241;73;1062;-66
2022/08/10 03:39:31;;;;;;;;;;;24.50;36.30;;;;;;1594643;73;715;-66
2022/08/10 03:41:39;;;;;;;;;;;24.50;36.30;;;;;;1581089;74;1930;-65
2022/08/10 03:43:43;;;;;;;;;;;24.50;36.40;;;;;;1592537;73;1651;-66
2022/08/10 03:45:48;;;;;;;;;;;24.50;36.30;;;;;;1584911;74;750;-67
2022/08/10 03:47:49;;;;;;;;;;;24.50;36.40;;;;;;1592136;74;1210;-69
2022/08/10 03:49:51;;;;;;;;;;;24.40;36.30;;;;;;1593310;74;753;-66
2022/08/10 03:51:53;;;;;;;;;;;24.50;36.40;;;;;;1591650;74;708;-66
2022/08/10 03:53:54;;;;;;;;;;;24.50;36.50;;;;;;1594277;74;1160;-66
2022/08/10 03:55:56;;;;;;;;;;;24.50;36.40;;;;;;1594967;74;684;-66
2022/08/10 03:57:58;;;;;;;;;;;24.50;36.40;;;;;;1587924;74;703;-66
2022/08/10 04:00:00;;;;;;;;;;;24.50;36.40;;;;;;1595205;74;652;-66
2022/08/10 04:02:02;;;;;;;;;;;24.40;36.30;;;;;;1592778;74;1941;-67
2022/08/10 04:04:04;;;;;;;;;;;24.50;36.30;;;;;;1594701;73;1156;-67
2022/08/10 04:06:06;;;;;;;;;;;24.50;36.40;;;;;;1591438;74;726;-67
2022/08/10 04:08:08;;;;;;;;;;;24.40;36.30;;;;;;1596124;73;1445;-68
2022/08/10 04:10:10;;;;;;;;;;;24.40;36.40;;;;;;1593383;73;721;-66
2022/08/10 04:12:12;;;;;;;;;;;24.40;36.40;;;;;;1590544;74;820;-67
2022/08/10 04:14:14;;;;;;;;;;;24.40;36.40;;;;;;1592538;74;1111;-66
2022/08/10 04:16:16;;;;;;;;;;;24.50;36.50;;;;;;1592600;74;678;-66
2022/08/10 04:18:18;;;;;;;;;;;24.50;36.50;;;;;;1589212;73;686;-66
2022/08/10 04:20:30;;;;;;;;;;;24.40;36.40;;;;;;1593830;73;709;-67
2022/08/10 04:22:32;;;;;;;;;;;24.40;36.40;;;;;;1592371;74;1917;-67
2022/08/10 04:24:34;;;;;;;;;;;24.40;36.30;;;;;;1593129;74;682;-67
2022/08/10 04:26:36;;;;;;;;;;;24.50;36.50;;;;;;1588622;74;733;-68
2022/08/10 04:28:39;;;;;;;;;;;24.40;36.40;;;;;;1588784;74;667;-65
2022/08/10 04:30:40;;;;;;;;;;;24.40;36.40;;;;;;1593542;73;729;-66
2022/08/10 04:32:42;;;;;;;;;;;24.50;36.50;;;;;;1589988;73;1124;-63
2022/08/10 04:34:44;;;;;;;;;;;24.50;36.40;;;;;;1595491;74;748;-66
2022/08/10 04:36:46;;;;;;;;;;;24.50;36.40;;;;;;1593978;74;792;-66
2022/08/10 04:38:49;;;;;;;;;;;24.40;36.40;;;;;;1594029;74;765;-66
2022/08/10 04:40:51;;;;;;;;;;;24.50;36.50;;;;;;1593177;73;807;-66
2022/08/10 04:42:53;;;;;;;;;;;24.50;36.50;;;;;;1595307;74;1936;-66
2022/08/10 04:44:54;;;;;;;;;;;24.50;36.40;;;;;;1594504;73;782;-66
2022/08/10 04:46:56;;;;;;;;;;;24.50;36.40;;;;;;1595706;73;739;-66
2022/08/10 04:48:58;;;;;;;;;;;24.50;36.40;;;;;;1593280;74;721;-66
2022/08/10 04:51:00;;;;;;;;;;;24.50;36.40;;;;;;1594281;73;798;-67
2022/08/10 04:53:02;;;;;;;;;;;24.60;36.40;;;;;;1592606;74;1172;-66
2022/08/10 04:55:04;;;;;;;;;;;24.50;36.40;;;;;;1591445;74;778;-66
2022/08/10 04:57:06;;;;;;;;;;;24.50;36.40;;;;;;1585312;74;899;-66
2022/08/10 04:59:08;;;;;;;;;;;24.50;36.40;;;;;;1594948;74;686;-66
2022/08/10 05:01:10;;;;;;;;;;;24.50;36.40;;;;;;1592953;74;733;-67
2022/08/10 05:03:12;;;;;;;;;;;24.50;36.40;;;;;;1591515;74;1964;-66
2022/08/10 05:05:14;;;;;;;;;;;24.50;36.40;;;;;;1594529;73;690;-66
2022/08/10 05:07:16;;;;;;;;;;;24.50;36.40;;;;;;1590256;74;726;-67
2022/08/10 05:09:18;;;;;;;;;;;24.50;36.30;;;;;;1593633;74;717;-66
2022/08/10 05:11:20;;;;;;;;;;;24.50;36.40;;;;;;1582954;74;709;-67
2022/08/10 05:13:21;;;;;;;;;;;24.50;36.40;;;;;;1594383;73;1172;-66
2022/08/10 05:15:23;;;;;;;;;;;24.50;36.50;;;;;;1585928;73;720;-66
2022/08/10 05:17:25;;;;;;;;;;;24.50;36.50;;;;;;1590225;74;697;-66
2022/08/10 05:19:27;;;;;;;;;;;24.50;36.50;;;;;;1591866;74;771;-66
2022/08/10 05:21:29;;;;;;;;;;;24.50;36.40;;;;;;1595527;73;934;-66
2022/08/10 05:23:31;;;;;;;;;;;24.60;36.40;;;;;;1586469;74;1933;-66
2022/08/10 05:25:33;;;;;;;;;;;24.60;36.70;;;;;;1585389;74;721;-66
2022/08/10 05:27:35;;;;;;;;;;;24.60;36.70;;;;;;1591812;73;725;-66
2022/08/10 05:29:37;;;;;;;;;;;24.70;37.60;;;;;;1594512;74;703;-66
2022/08/10 05:31:39;;;;;;;;;;;24.80;37.30;;;;;;1596370;73;737;-66
2022/08/10 05:33:40;;;;;;;;;;;24.90;38.10;;;;;;1591893;74;1149;-65
2022/08/10 05:35:42;;;;;;;;;;;24.90;37.70;;;;;;1595651;74;794;-64
2022/08/10 05:37:44;;;;;;;;;;;25.00;37.90;;;;;;1594116;73;712;-66
2022/08/10 05:39:46;;;;;;;;;;;25.10;37.70;;;;;;1592497;73;596;-66
2022/08/10 05:41:50;;;;;;;;;;;25.30;37.40;;;;;;1595559;73;725;-67
2022/08/10 05:43:51;;;;;;;;;;;25.30;37.30;;;;;;1582381;73;1946;-65
2022/08/10 05:45:53;;;;;;;;;;;25.40;36.80;;;;;;1592878;74;705;-65
2022/08/10 05:47:55;;;;;;;;;;;25.50;36.50;;;;;;1589299;74;688;-66
2022/08/10 05:49:57;;;;;;;;;;;25.50;36.40;;;;;;1592352;73;741;-66
2022/08/10 05:51:59;;;;;;;;;;;25.50;35.80;;;;;;1593783;73;689;-66
2022/08/10 05:54:01;;;;;;;;;;;25.70;35.90;;;;;;1592223;74;1180;-65
2022/08/10 05:56:03;;;;;;;;;;;25.70;35.40;;;;;;1594120;74;798;-66
2022/08/10 05:58:04;;;;;;;;;;;25.80;35.50;;;;;;1594568;74;708;-65
2022/08/10 06:00:08;;;;;;;;;;;25.90;35.20;;;;;;1594112;74;1338;-66
2022/08/10 06:02:10;;;;;;;;;;;25.90;35.00;;;;;;1583413;74;707;-66
2022/08/10 06:04:14;;;;;;;;;;;26.00;34.80;;;;;;1593511;74;1176;-66
2022/08/10 06:06:16;;;;;;;;;;;25.90;34.20;;;;;;1595224;74;1032;-66
2022/08/10 06:08:22;;;;;;;;;;;26.00;34.90;;;;;;1595975;73;706;-66
2022/08/10 06:10:24;;;;;;;;;;;26.00;34.70;;;;;;1590637;74;835;-66
2022/08/10 06:12:29;;;;;;;;;;;26.00;34.50;;;;;;1594359;73;1128;-64
2022/08/10 06:16:51;;;;;;;;;;;26.10;34.30;;;;;;1589711;73;710;-66
2022/08/10 06:18:53;;;;;;;;;;;26.00;34.20;;;;;;1593434;73;729;-68
2022/08/10 06:20:56;;;;;;;;;;;26.10;34.40;;;;;;1592113;74;718;-66
2022/08/10 06:23:00;;;;;;;;;;;26.10;33.90;;;;;;1582687;74;1935;-66
2022/08/10 06:25:02;;;;;;;;;;;26.00;33.70;;;;;;1593673;74;694;-65
2022/08/10 06:27:04;;;;;;;;;;;26.10;34.00;;;;;;1594535;73;610;-66
2022/08/10 06:29:08;;;;;;;;;;;26.10;33.70;;;;;;1590160;74;666;-66
2022/08/10 06:31:10;;;;;;;;;;;26.10;33.60;;;;;;1587017;74;1137;-65
2022/08/10 06:33:11;;;;;;;;;;;26.10;33.60;;;;;;1587376;74;1154;-65
2022/08/10 06:35:13;;;;;;;;;;;26.10;33.70;;;;;;1592681;74;701;-66
2022/08/10 06:37:16;;;;;;;;;;;26.10;33.60;;;;;;1596969;73;733;-66
2022/08/10 06:39:18;;;;;;;;;;;26.10;33.90;;;;;;1594804;74;714;-66
2022/08/10 06:41:21;;;;;;;;;;;26.10;33.80;;;;;;1594942;73;835;-66
2022/08/10 06:43:22;;;;;;;;;;;26.10;33.80;;;;;;1597519;73;1928;-65
2022/08/10 06:45:26;;;;;;;;;;;26.10;33.90;;;;;;1591730;73;735;-66
2022/08/10 06:47:32;;;;;;;;;;;26.10;33.90;;;;;;1596302;73;759;-67
2022/08/10 06:49:34;;;;;;;;;;;26.10;33.90;;;;;;1594934;73;969;-67
2022/08/10 06:51:37;;;;;;;;;;;26.10;33.80;;;;;;1593477;73;730;-65
2022/08/10 06:53:40;;;;;;;;;;;26.10;33.90;;;;;;1594259;74;1116;-66
2022/08/10 06:55:49;;;;;;;;;;;26.10;33.90;;;;;;1583358;74;1443;-63
2022/08/10 06:57:51;;;;;;;;;;;26.10;34.00;;;;;;1594827;73;710;-65
2022/08/10 06:59:53;;;;;;;;;;;26.10;34.00;;;;;;1595363;73;720;-65
2022/08/10 07:01:56;;;;;;;;;;;26.10;34.10;;;;;;1593586;73;672;-65
2022/08/10 07:04:00;;;;;;;;;;;26.00;34.10;;;;;;1593587;74;1941;-64
2022/08/10 07:06:02;;;;;;;;;;;26.10;34.00;;;;;;1592905;74;757;-64
2022/08/10 07:08:03;;;;;;;;;;;26.10;34.20;;;;;;1593266;74;699;-65
2022/08/10 07:10:06;;;;;;;;;;;26.20;34.00;;;;;;1593323;74;706;-65
2022/08/10 07:12:08;;;;;;;;;;;26.30;33.90;;;;;;1588568;74;802;-65
2022/08/10 07:14:13;;;;;;;;;;;26.30;33.90;;;;;;1596132;74;1112;-65
2022/08/10 07:16:15;;;;;;;;;;;26.30;33.90;;;;;;1595361;74;737;-65
2022/08/10 07:18:17;;;;;;;;;;;26.30;33.90;;;;;;1592521;73;726;-65
2022/08/10 07:20:20;;;;;;;;;;;26.30;33.90;;;;;;1584092;74;622;-65
2022/08/10 07:22:23;;;;;;;;;;;26.20;34.00;;;;;;1593239;74;713;-65
2022/08/10 07:24:25;;;;;;;;;;;26.20;33.90;;;;;;1589778;74;1961;-65
2022/08/10 07:26:28;;;;;;;;;;;26.20;33.90;;;;;;1593575;74;689;-66
2022/08/10 07:28:30;;;;;;;;;;;26.20;33.90;;;;;;1588830;74;567;-64
2022/08/10 07:30:33;;;;;;;;;;;26.20;34.00;;;;;;1584093;74;772;-66
2022/08/10 07:32:35;;;;;;;;;;;26.20;33.90;;;;;;1559074;74;1156;-66
2022/08/10 07:34:37;;;;;;;;;;;26.20;33.90;;;;;;1592486;74;705;-66
2022/08/10 07:36:39;;;;;;;;;;;26.20;33.90;;;;;;1593218;73;794;-67
2022/08/10 07:38:41;;;;;;;;;;;26.20;33.90;;;;;;1585854;74;701;-65
2022/08/10 07:40:43;;;;;;;;;;;26.20;33.80;;;;;;1594345;73;731;-64
2022/08/10 07:42:45;;;;;;;;;;;26.20;33.90;;;;;;1596179;73;1102;-65
2022/08/10 07:44:47;;;;;;;;;;;26.20;33.80;;;;;;1590749;74;778;-65
2022/08/10 07:46:49;;;;;;;;;;;26.20;33.90;;;;;;1595757;74;714;-65
2022/08/10 07:48:53;;;;;;;;;;;26.20;34.00;;;;;;1592206;74;707;-65
2022/08/10 07:50:56;;;;;;;;;;;26.30;33.90;;;;;;1585521;73;649;-65
2022/08/10 07:55:03;;;;;;;;;;;26.30;33.70;;;;;;1552670;75;650;-58
2022/08/10 07:57:05;;;;;;;;;;;26.30;33.70;;;;;;1550682;75;725;-59
2022/08/10 07:59:07;;;;;;;;;;;26.30;33.80;;;;;;1544136;75;799;-60
2022/08/10 08:01:09;;;;;;;;;;;26.30;33.80;;;;;;1557645;75;733;-56
2022/08/10 08:03:11;;;;;;;;;;;26.40;33.60;;;;;;1543522;76;1943;-60
2022/08/10 08:05:13;;;;;;;;;;;26.40;33.70;;;;;;1552547;75;691;-60
2022/08/10 08:07:15;;;;;;;;;;;26.40;33.90;;;;;;1528822;76;784;-60
2022/08/10 08:09:18;;;;;;;;;;;26.40;33.90;;;;;;1554139;75;713;-60
2022/08/10 08:11:19;;;;;;;;;;;26.30;33.90;;;;;;1550963;76;677;-59
2022/08/10 08:13:21;;;;;;;;;;;26.40;33.90;;;;;;1547726;75;1127;-58
2022/08/10 08:15:23;;;;;;;;;;;26.30;33.90;;;;;;1540268;76;706;-57
2022/08/10 08:17:25;;;;;;;;;;;26.40;33.70;;;;;;1560023;76;718;-57
2022/08/10 08:19:28;;;;;;;;;;;26.30;33.90;;;;;;1547558;75;761;-58
2022/08/10 08:21:30;;;;;;;;;;;26.40;33.80;;;;;;1536517;75;794;-56
2022/08/10 08:23:32;;;;;;;;;;;26.40;33.90;;;;;;1536956;76;1939;-58
2022/08/10 08:25:33;;;;;;;;;;;26.30;33.80;;;;;;1539812;76;729;-57
2022/08/10 08:27:35;;;;;;;;;;;26.30;33.90;;;;;;1544891;76;647;-56
2022/08/10 08:29:38;;;;;;;;;;;26.30;33.70;;;;;;1528289;76;734;-58
2022/08/10 08:31:40;;;;;;;;;;;26.40;33.80;;;;;;1536616;76;946;-57
2022/08/10 08:33:43;;;;;;;;;;;26.30;33.90;;;;;;1547462;76;1087;-58
2022/08/10 08:35:45;;;;;;;;;;;26.40;33.70;;;;;;1539752;75;785;-58
2022/08/10 08:37:48;;;;;;;;;;;26.40;33.30;;;;;;1548592;76;772;-57
2022/08/10 08:39:50;;;;;;;;;;;26.50;33.40;;;;;;1544829;76;815;-57
2022/08/10 08:41:59;;;;;;;;;;;26.40;33.20;;;;;;1538021;76;753;-57
2022/08/10 08:44:05;;;;;;;;;;;26.40;33.30;;;;;;1546619;75;1977;-57
2022/08/10 08:46:15;;;;;;;;;;;26.40;33.40;;;;;;1534171;76;719;-57
2022/08/10 08:48:21;;;;;;;;;;;26.40;33.60;;;;;;1556319;75;2019;-58
2022/08/10 08:50:25;;;;;;;;;;;26.30;33.60;;;;;;1554792;75;791;-55
2022/08/10 08:52:40;;;;;;;;;;;26.30;33.50;;;;;;1554490;76;1121;-58
2022/08/10 08:54:59;;;;;;;;;;;26.30;33.60;;;;;;1561833;76;791;-58
2022/08/10 08:57:03;;;;;;;;;;;26.30;33.60;;;;;;1542877;76;779;-56
2022/08/10 08:59:07;;;;;;;;;;;26.30;33.60;;;;;;1541102;75;808;-58
2022/08/10 09:01:19;;;;;;;;;;;26.30;33.70;;;;;;1555729;76;1908;-58
2022/08/10 09:03:22;;;;;;;;;;;26.30;33.40;;;;;;1542950;76;1947;-57
2022/08/10 09:05:32;;;;;;;;;;;26.20;33.60;;;;;;1549500;75;1999;-54
2022/08/10 09:07:54;;;;;;;;;;;26.30;33.70;;;;;;1553525;76;745;-57
2022/08/10 09:10:14;;;;;;;;;;;26.30;33.60;;;;;;1550607;76;1622;-57
2022/08/10 09:12:32;;;;;;;;;;;26.30;33.50;;;;;;1523934;76;1105;-58
2022/08/10 09:14:36;;;;;;;;;;;26.20;33.50;;;;;;1550188;76;745;-57
2022/08/10 09:16:46;;;;;;;;;;;26.30;33.60;;;;;;1548482;76;742;-58
2022/08/10 09:18:52;;;;;;;;;;;26.30;33.60;;;;;;1533529;76;749;-54
2022/08/10 09:20:58;;;;;;;;;;;26.20;33.40;;;;;;1547837;75;795;-56
2022/08/10 09:23:01;;;;;;;;;;;26.20;33.40;;;;;;1551306;76;1792;-56
2022/08/10 09:25:11;;;;;;;;;;;26.20;32.90;;;;;;1544761;75;1951;-58
2022/08/10 09:27:20;;;;;;;;;;;26.10;33.30;;;;;;1533131;76;1962;-58
2022/08/10 09:29:23;;;;;;;;;;;26.10;32.80;;;;;;1534410;76;656;-58
2022/08/10 09:31:25;;;;;;;;;;;26.20;33.10;;;;;;1544488;76;1815;-56
2022/08/10 09:33:31;;;;;;;;;;;26.00;33.60;;;;;;1537197;76;1146;-57
2022/08/10 09:35:35;;;;;;;;;;;26.10;33.40;;;;;;1541363;75;1931;-58
2022/08/10 09:37:55;;;;;;;;;;;26.10;32.80;;;;;;1553376;76;687;-55
2022/08/10 09:40:01;;;;;;;;;;;26.10;32.50;;;;;;1544501;76;763;-58
2022/08/10 09:42:17;;;;;;;;;;;26.10;33.10;;;;;;1551392;76;727;-58
2022/08/10 09:44:38;;;;;;;;;;;26.10;32.50;;;;;;1552066;76;1930;-58
2022/08/10 09:46:47;;;;;;;;;;;26.10;32.50;;;;;;1544883;75;892;-53
2022/08/10 09:48:59;;;;;;;;;;;26.00;32.70;;;;;;1509723;75;1047;-58
2022/08/10 09:51:06;;;;;;;;;;;26.10;32.20;;;;;;1553917;76;751;-58
2022/08/10 09:53:09;;;;;;;;;;;26.00;31.90;;;;;;1549317;76;1134;-58
2022/08/10 09:55:16;;;;;;;;;;;26.00;32.10;;;;;;1554602;76;773;-58
2022/08/10 09:57:20;;;;;;;;;;;26.10;31.70;;;;;;1548235;76;731;-58
2022/08/10 09:59:23;;;;;;;;;;;26.00;32.30;;;;;;1525328;75;1693;-58
2022/08/10 10:01:43;;;;;;;;;;;26.00;32.60;;;;;;1535191;76;1691;-57
2022/08/10 10:03:59;;;;;;;;;;;26.00;32.30;;;;;;1554401;75;1947;-57
2022/08/10 10:06:03;;;;;;;;;;;26.00;32.60;;;;;;1543492;76;1930;-58
2022/08/10 10:08:06;;;;;;;;;;;26.00;32.10;;;;;;1538892;76;776;-58
2022/08/10 10:10:15;;;;;;;;;;;26.10;32.00;;;;;;1544037;76;1790;-54
2022/08/10 10:12:31;;;;;;;;;;;25.90;31.90;;;;;;1548399;76;1153;-58
2022/08/10 10:15:18;;;;;;;;;;;26.00;32.20;;;;;;1550224;76;1925;-58
2022/08/10 10:17:00;;;;;;;;;;;26.00;32.70;;;;;;1529057;76;1679;-55
2022/08/10 10:19:09;;;;;;;;;;;26.00;32.60;;;;;;1562283;75;666;-59
2022/08/10 10:21:13;;;;;;;;;;;25.90;32.10;;;;;;1541558;76;1572;-56
2022/08/10 10:23:33;;;;;;;;;;;26.00;32.80;;;;;;1541750;76;1628;-54
2022/08/10 10:25:36;;;;;;;;;;;26.00;32.90;;;;;;1555616;76;1908;-57
2022/08/10 10:27:52;;;;;;;;;;;26.00;32.50;;;;;;1541522;76;1602;-59
2022/08/10 10:30:05;;;;;;;;;;;25.90;32.00;;;;;;1539037;76;687;-59
2022/08/10 10:32:08;;;;;;;;;;;25.90;31.70;;;;;;1542914;76;783;-59
2022/08/10 10:34:28;;;;;;;;;;;26.00;32.30;;;;;;1560980;75;843;-59
2022/08/10 10:36:30;;;;;;;;;;;26.00;32.30;;;;;;1547405;75;763;-58
2022/08/10 10:38:34;;;;;;;;;;;25.90;31.50;;;;;;1549439;75;924;-57
2022/08/10 10:40:37;;;;;;;;;;;25.90;31.70;;;;;;1550117;75;797;-55
2022/08/10 10:42:41;;;;;;;;;;;26.00;32.90;;;;;;1544936;75;1873;-59
2022/08/10 10:44:50;;;;;;;;;;;26.00;32.00;;;;;;1553604;76;1943;-59
2022/08/10 10:47:00;;;;;;;;;;;25.90;31.00;;;;;;1543945;75;1966;-56
2022/08/10 10:49:12;;;;;;;;;;;25.90;31.20;;;;;;1540452;76;1868;-59
2022/08/10 10:51:25;;;;;;;;;;;25.90;31.90;;;;;;1533494;76;1879;-53
2022/08/10 10:53:40;;;;;;;;;;;25.80;31.30;;;;;;1548762;75;1121;-59
2022/08/10 10:55:43;;;;;;;;;;;25.80;32.00;;;;;;1545530;75;1508;-55
2022/08/10 10:57:53;;;;;;;;;;;25.90;31.90;;;;;;1543135;75;700;-55
2022/08/10 11:00:02;;;;;;;;;;;25.80;31.70;;;;;;1552488;76;1921;-59
2022/08/10 11:02:18;;;;;;;;;;;25.90;32.10;;;;;;1552717;75;746;-55
2022/08/10 11:04:38;;;;;;;;;;;25.90;32.00;;;;;;1551883;76;1925;-59
2022/08/10 11:06:44;;;;;;;;;;;25.90;31.90;;;;;;1554040;76;679;-59
2022/08/10 11:08:46;;;;;;;;;;;25.90;32.10;;;;;;1537852;76;756;-57
2022/08/10 11:10:53;;;;;;;;;;;25.90;31.60;;;;;;1550229;75;1800;-56
2022/08/10 11:12:59;;;;;;;;;;;25.90;31.80;;;;;;1550493;76;1157;-56
2022/08/10 11:15:06;;;;;;;;;;;25.90;32.10;;;;;;1544248;76;816;-58
2022/08/10 11:17:18;;;;;;;;;;;25.90;31.80;;;;;;1555370;75;746;-59
2022/08/10 11:19:25;;;;;;;;;;;25.90;32.20;;;;;;1555727;76;795;-59
2022/08/10 11:21:28;;;;;;;;;;;25.90;32.00;;;;;;1549918;76;2077;-58
2022/08/10 11:23:38;;;;;;;;;;;25.80;31.90;;;;;;1540162;76;2136;-57
2022/08/10 11:25:44;;;;;;;;;;;25.70;31.60;;;;;;1541389;75;1920;-56
2022/08/10 11:27:49;;;;;;;;;;;25.70;31.80;;;;;;1528805;76;783;-56
2022/08/10 11:29:53;;;;;;;;;;;25.80;32.30;;;;;;1557004;76;812;-59
2022/08/10 11:31:56;;;;;;;;;;;25.70;32.30;;;;;;1546290;75;1743;-58
2022/08/10 11:34:02;;;;;;;;;;;25.70;32.00;;;;;;1548886;75;1033;-58
2022/08/10 11:36:08;;;;;;;;;;;25.70;32.20;;;;;;1553088;76;735;-59
2022/08/10 11:38:15;;;;;;;;;;;25.70;32.10;;;;;;1547969;76;1870;-59
2022/08/10 11:40:27;;;;;;;;;;;25.80;32.00;;;;;;1547203;76;858;-57
2022/08/10 11:42:37;;;;;;;;;;;25.70;32.00;;;;;;1556856;75;1105;-59
2022/08/10 11:44:43;;;;;;;;;;;25.70;32.30;;;;;;1536102;76;1936;-59
2022/08/10 11:46:56;;;;;;;;;;;25.80;32.10;;;;;;1549935;75;730;-55
2022/08/10 11:49:08;;;;;;;;;;;25.70;32.10;;;;;;1549464;76;798;-59
2022/08/10 11:51:11;;;;;;;;;;;25.70;32.30;;;;;;1541388;75;1594;-58
2022/08/10 11:53:23;;;;;;;;;;;25.70;32.10;;;;;;1546594;76;1157;-59
2022/08/10 11:55:26;;;;;;;;;;;25.70;32.30;;;;;;1554391;76;786;-57
2022/08/10 11:57:29;;;;;;;;;;;25.70;32.60;;;;;;1555648;76;1868;-55
2022/08/10 12:01:51;;;;;;;;;;;25.50;32.80;;;;;;1550714;75;1686;-59
2022/08/10 12:03:53;;;;;;;;;;;25.60;32.90;;;;;;1538635;76;1143;-58
2022/08/10 12:05:55;;;;;;;;;;;25.60;32.80;;;;;;1552743;76;1919;-56
2022/08/10 12:07:57;;;;;;;;;;;25.60;32.50;;;;;;1550489;76;739;-58
2022/08/10 12:09:59;;;;;;;;;;;25.70;32.70;;;;;;1549549;76;811;-57
2022/08/10 12:12:01;;;;;;;;;;;25.70;32.50;;;;;;1554195;76;674;-58
2022/08/10 12:14:08;;;;;;;;;;;25.70;32.60;;;;;;1553732;76;1110;-59
2022/08/10 12:16:11;;;;;;;;;;;25.70;32.30;;;;;;1534829;75;674;-55
2022/08/10 12:18:18;;;;;;;;;;;25.70;32.00;;;;;;1541636;76;779;-59
2022/08/10 12:20:27;;;;;;;;;;;25.70;32.60;;;;;;1546427;76;1799;-56
2022/08/10 12:22:39;;;;;;;;;;;25.70;32.10;;;;;;1553238;75;1072;-59
2022/08/10 12:24:48;;;;;;;;;;;25.70;32.30;;;;;;1551858;76;1947;-57
2022/08/10 12:26:52;;;;;;;;;;;25.70;32.60;;;;;;1551640;76;767;-58
2022/08/10 12:28:55;;;;;;;;;;;25.70;32.40;;;;;;1553781;76;2122;-59
2022/08/10 12:30:57;;;;;;;;;;;25.70;32.50;;;;;;1546352;75;706;-60
2022/08/10 12:33:01;;;;;;;;;;;25.70;32.10;;;;;;1549762;76;1101;-58